createdAt,value
2022-08-19T00:01:00.286Z,98509.51
2022-08-19T00:06:04.475Z,98505.81
2022-08-19T00:11:08.503Z,98508.01
2022-08-19T00:16:22.789Z,98502.92
2022-08-19T00:21:29.913Z,98499.73
2022-08-19T00:26:32.837Z,98503.79
2022-08-19T00:31:36.783Z,98506.76
2022-08-19T00:36:41.044Z,98509.92
2022-08-19T00:41:47.843Z,98505.25
2022-08-19T00:46:58.290Z,98498.79
2022-08-19T00:52:15.174Z,98504.67
2022-08-19T00:57:23.543Z,98503.90
2022-08-19T01:02:28.732Z,98496.95
2022-08-19T01:07:37.635Z,98494.48
2022-08-19T01:12:42.155Z,98492.42
2022-08-19T01:17:46.045Z,98492.64
2022-08-19T01:22:53.297Z,98483.83
2022-08-19T01:27:56.917Z,98475.39
2022-08-19T01:33:07.079Z,98466.73
2022-08-19T01:38:22.514Z,98464.52
2022-08-19T01:43:25.373Z,98451.91
2022-08-19T01:48:30.379Z,98460.73
2022-08-19T01:53:33.887Z,98467.45
2022-08-19T01:58:46.175Z,98469.73
2022-08-19T02:03:49.423Z,98465.67
2022-08-19T02:08:52.450Z,98469.60
2022-08-19T02:14:03.278Z,98468.04
2022-08-19T02:19:06.305Z,98462.60
2022-08-19T02:24:09.141Z,98459.57
2022-08-19T02:29:12.156Z,98447.13
2022-08-19T02:34:15.284Z,98449.88
2022-08-19T02:39:18.988Z,98444.54
2022-08-19T02:44:31.309Z,98448.28
2022-08-19T02:49:35.000Z,98452.39
2022-08-19T02:54:39.427Z,98455.86
2022-08-19T02:59:42.420Z,98452.26
2022-08-19T03:04:45.667Z,98458.11
2022-08-19T03:09:48.550Z,98468.05
2022-08-19T03:14:52.172Z,98473.27
2022-08-19T03:19:55.079Z,98477.82
2022-08-19T03:24:58.014Z,98486.27
2022-08-19T03:30:01.016Z,98482.15
2022-08-19T03:35:04.328Z,98486.42
2022-08-19T03:40:07.875Z,98476.85
2022-08-19T03:45:17.332Z,98479.03
2022-08-19T03:50:20.758Z,98479.97
2022-08-19T03:55:23.716Z,98482.27
2022-08-19T04:00:27.107Z,98488.39
2022-08-19T04:05:30.353Z,98493.77
2022-08-19T04:10:39.537Z,98485.29
2022-08-19T04:15:44.171Z,98480.55
2022-08-19T04:20:48.654Z,98477.85
2022-08-19T04:25:51.750Z,98470.50
2022-08-19T04:30:55.942Z,98482.36
2022-08-19T04:35:59.348Z,98489.67
2022-08-19T04:41:22.576Z,98478.60
2022-08-19T04:46:40.103Z,98484.15
2022-08-19T04:51:50.857Z,98498.60
2022-08-19T04:56:54.509Z,98509.59
2022-08-19T05:01:57.382Z,98520.00
2022-08-19T05:07:02.381Z,98525.89
2022-08-19T05:12:07.127Z,98530.86
2022-08-19T05:22:34.021Z,98526.32
2022-08-19T05:27:37.183Z,98531.73
2022-08-19T05:32:41.073Z,98536.24
2022-08-19T05:37:44.075Z,98533.70
2022-08-19T05:42:47.166Z,98542.86
2022-08-19T05:47:59.548Z,98533.52
2022-08-19T05:53:02.541Z,98535.66
2022-08-19T05:58:08.675Z,98533.59
2022-08-19T06:03:13.449Z,98531.24
2022-08-19T06:08:19.618Z,98536.80
2022-08-19T06:13:23.745Z,98526.89
2022-08-19T06:18:26.696Z,98526.36
2022-08-19T06:23:30.565Z,98527.39
2022-08-19T06:28:34.548Z,98531.02
2022-08-19T06:33:38.387Z,98533.91
2022-08-19T06:38:41.754Z,98538.20
2022-08-19T06:43:45.367Z,98537.98
2022-08-19T06:48:49.194Z,98543.89
2022-08-19T06:53:54.623Z,98545.44
2022-08-19T06:58:59.584Z,98541.23
2022-08-19T07:04:03.439Z,98547.29
2022-08-19T07:09:08.394Z,98557.25
2022-08-19T07:14:19.153Z,98573.39
2022-08-19T07:19:28.158Z,98571.05
2022-08-19T07:24:33.614Z,98565.52
2022-08-19T07:29:38.114Z,98563.59
2022-08-19T07:34:41.536Z,98564.40
2022-08-19T07:39:45.947Z,98567.52
2022-08-19T07:44:50.303Z,98568.65
2022-08-19T07:49:53.873Z,98571.63
2022-08-19T07:54:56.805Z,98577.39
2022-08-19T08:00:00.333Z,98575.13
2022-08-19T08:05:22.589Z,98582.35
2022-08-19T08:10:26.311Z,98588.73
2022-08-19T08:15:29.723Z,98592.55
2022-08-19T08:20:33.161Z,98590.02
2022-08-19T08:25:37.399Z,98595.61
2022-08-19T08:30:45.249Z,98591.77
2022-08-19T08:35:49.091Z,98593.36
2022-08-19T08:41:00.219Z,98597.76
2022-08-19T08:46:12.303Z,98593.95
2022-08-19T08:51:31.864Z,98590.77
2022-08-19T08:56:40.938Z,98583.92
2022-08-19T09:01:44.451Z,98582.84
2022-08-19T09:07:18.005Z,98578.81
2022-08-19T09:12:26.803Z,98582.84
2022-08-19T09:17:32.213Z,98574.92
2022-08-19T09:22:37.124Z,98575.44
2022-08-19T09:27:44.075Z,98570.25
2022-08-19T09:32:47.141Z,98570.19
2022-08-19T09:37:59.600Z,98557.48
2022-08-19T09:43:11.389Z,98553.41
2022-08-19T09:48:19.101Z,98552.00
2022-08-19T09:53:27.670Z,98553.42
2022-08-19T09:58:32.391Z,98550.02
2022-08-19T10:03:37.093Z,98549.10
2022-08-19T10:08:40.950Z,98543.95
2022-08-19T10:13:53.848Z,98534.88
2022-08-19T10:18:59.107Z,98535.55
2022-08-19T10:24:05.440Z,98534.78
2022-08-19T10:29:09.285Z,98530.92
2022-08-19T10:34:27.081Z,98524.64
2022-08-19T10:39:32.870Z,98521.66
2022-08-19T10:44:47.857Z,98518.34
2022-08-19T10:50:11.757Z,98526.02
2022-08-19T10:55:33.482Z,98530.95
2022-08-19T11:00:36.343Z,98527.99
2022-08-19T11:05:41.077Z,98525.33
2022-08-19T11:10:50.305Z,98525.99
2022-08-19T11:16:11.762Z,98526.20
2022-08-19T11:21:14.979Z,98509.80
2022-08-19T11:26:19.829Z,98500.73
2022-08-19T11:31:29.438Z,98502.54
2022-08-19T11:36:35.961Z,98498.55
2022-08-19T11:41:39.008Z,98490.59
2022-08-19T11:46:47.144Z,98488.64
2022-08-19T11:51:51.785Z,98487.89
2022-08-19T11:56:57.235Z,98479.88
2022-08-19T12:02:00.307Z,98485.00
2022-08-19T12:07:04.419Z,98493.30
2022-08-19T12:12:07.670Z,98493.05
2022-08-19T12:17:12.512Z,98492.09
2022-08-19T12:22:16.898Z,98495.42
2022-08-19T12:27:20.320Z,98492.85
2022-08-19T12:32:38.332Z,98490.48
2022-08-19T12:37:43.366Z,98493.52
2022-08-19T12:42:46.674Z,98486.08
2022-08-19T12:47:50.672Z,98480.89
2022-08-19T12:52:59.198Z,98477.14
2022-08-19T12:58:04.578Z,98476.19
2022-08-19T13:03:07.736Z,98471.70
2022-08-19T13:08:10.668Z,98467.49
2022-08-19T13:13:13.662Z,98469.94
2022-08-19T13:18:16.989Z,98466.15
2022-08-19T13:23:19.920Z,98463.34
2022-08-19T13:28:22.886Z,98464.30
2022-08-19T13:33:34.228Z,98459.18
2022-08-19T13:38:37.502Z,98457.14
2022-08-19T13:43:40.533Z,98455.29
2022-08-19T13:48:44.039Z,98450.89
2022-08-19T13:53:48.145Z,98449.58
2022-08-19T13:58:51.374Z,98448.46
2022-08-19T14:03:54.483Z,98442.01
2022-08-19T14:08:57.428Z,98436.87
2022-08-19T14:14:00.567Z,98427.45
2022-08-19T14:19:04.143Z,98426.12
2022-08-19T14:24:07.645Z,98425.64
2022-08-19T14:29:10.522Z,98421.27
2022-08-19T14:34:13.887Z,98418.20
2022-08-19T14:39:16.788Z,98409.52
2022-08-19T14:44:19.618Z,98413.23
2022-08-19T14:49:31.938Z,98420.66
2022-08-19T14:54:38.607Z,98423.02
2022-08-19T14:59:42.353Z,98420.98
2022-08-19T15:04:45.342Z,98421.27
2022-08-19T15:09:51.850Z,98415.02
2022-08-19T15:14:56.861Z,98408.21
2022-08-19T15:20:00.880Z,98398.00
2022-08-19T15:25:06.785Z,98385.84
2022-08-19T15:30:11.529Z,98381.56
2022-08-19T15:35:14.595Z,98382.89
2022-08-19T15:40:17.769Z,98372.52
2022-08-19T15:45:22.571Z,98376.48
2022-08-19T15:50:25.920Z,98376.31
2022-08-19T15:55:35.179Z,98372.33
2022-08-19T16:00:56.884Z,98362.99
2022-08-19T16:06:19.280Z,98360.61
2022-08-19T16:11:29.284Z,98367.02
2022-08-19T16:16:34.461Z,98367.88
2022-08-19T16:21:39.726Z,98380.38
2022-08-19T16:26:45.730Z,98382.10
2022-08-19T16:31:49.962Z,98388.68
2022-08-19T16:36:52.890Z,98385.78
2022-08-19T16:41:56.273Z,98385.54
2022-08-19T16:47:00.382Z,98390.60
2022-08-19T16:52:06.107Z,98400.17
2022-08-19T16:57:08.960Z,98404.23
2022-08-19T17:02:14.909Z,98407.14
2022-08-19T17:07:17.896Z,98413.42
2022-08-19T17:12:20.859Z,98417.98
2022-08-19T17:17:28.740Z,98417.71
2022-08-19T17:22:32.271Z,98411.52
2022-08-19T17:27:35.260Z,98403.16
2022-08-19T17:32:38.384Z,98403.35
2022-08-19T17:37:42.641Z,98414.35
2022-08-19T17:42:45.638Z,98415.41
2022-08-19T17:47:48.665Z,98415.92
2022-08-19T17:52:52.565Z,98413.20
2022-08-19T17:57:55.569Z,98419.26
2022-08-19T18:03:03.230Z,98431.31
2022-08-19T18:08:10.736Z,98437.48
2022-08-19T18:13:17.666Z,98441.02
2022-08-19T18:18:21.473Z,98445.05
2022-08-19T18:23:44.355Z,98458.45
2022-08-19T18:28:50.043Z,98465.65
2022-08-19T18:33:53.157Z,98466.36
2022-08-19T18:39:14.978Z,98465.23
2022-08-19T18:44:37.840Z,98460.95
2022-08-19T18:49:40.961Z,98457.30
2022-08-19T18:54:47.188Z,98459.60
2022-08-19T18:59:52.149Z,98472.89
2022-08-19T19:04:56.183Z,98499.46
2022-08-19T19:09:59.058Z,98546.76
2022-08-19T19:15:05.934Z,98568.11
2022-08-19T19:20:10.025Z,98568.13
2022-08-19T19:25:13.666Z,98581.63
2022-08-19T19:30:16.803Z,98591.04
2022-08-19T19:35:19.710Z,98608.50
2022-08-19T19:40:22.808Z,98606.60
2022-08-19T19:45:26.324Z,98601.23
2022-08-19T19:50:30.318Z,98599.92
2022-08-19T19:55:33.259Z,98600.38
2022-08-19T20:00:36.597Z,98589.91
2022-08-19T20:05:39.560Z,98584.45
2022-08-19T20:10:43.881Z,98586.24
2022-08-19T20:15:46.855Z,98591.25
2022-08-19T20:20:51.012Z,98588.43
2022-08-19T20:25:54.558Z,98586.73
2022-08-19T20:30:58.095Z,98588.31
2022-08-19T20:36:01.844Z,98599.56
2022-08-19T20:41:05.951Z,98607.26
2022-08-19T20:46:09.499Z,98610.35
2022-08-19T20:51:13.659Z,98603.21
2022-08-19T20:56:16.550Z,98611.21
2022-08-19T21:01:19.447Z,98624.88
2022-08-19T21:06:23.246Z,98622.32
2022-08-19T21:11:26.171Z,98608.52
2022-08-19T21:16:29.217Z,98607.80
2022-08-19T21:21:33.347Z,98606.04
2022-08-19T21:26:36.228Z,98612.75
2022-08-19T21:31:39.384Z,98606.83
2022-08-19T21:36:42.303Z,98600.48
2022-08-19T21:41:45.205Z,98603.35
2022-08-19T21:46:50.440Z,98607.86
2022-08-19T21:51:53.675Z,98599.73
2022-08-19T21:56:56.689Z,98598.64
2022-08-19T22:02:15.629Z,98599.73
2022-08-19T22:07:22.808Z,98598.95
2022-08-19T22:12:29.768Z,98592.05
2022-08-19T22:17:33.393Z,98601.29
2022-08-19T22:22:38.050Z,98609.99
2022-08-19T22:27:40.904Z,98614.52
2022-08-19T22:32:46.603Z,98621.44
2022-08-19T22:37:51.776Z,98619.25
2022-08-19T22:43:03.549Z,98624.89
2022-08-19T22:48:09.222Z,98622.86
2022-08-19T22:53:12.394Z,98624.35
2022-08-19T22:58:15.313Z,98617.66
2022-08-19T23:03:31.144Z,98617.40
2022-08-19T23:08:34.214Z,98616.73
2022-08-19T23:13:39.552Z,98618.66
2022-08-19T23:18:42.422Z,98616.30
2022-08-19T23:23:45.785Z,98609.73
2022-08-19T23:29:07.620Z,98608.54
2022-08-19T23:34:11.134Z,98608.84
2022-08-19T23:39:13.997Z,98618.02
2022-08-19T23:44:18.399Z,98609.37
2022-08-19T23:49:21.312Z,98627.39
2022-08-19T23:54:34.309Z,98633.46
2022-08-19T23:59:46.909Z,98617.50
